LGX15EE LICJ-LICR
Flight info
| Callsign | LGX15EE |
|---|---|
| Flight time | 0h 37m |
| Altitude | 20000 |
| Route | PAL DCT PELEN DCT URCAH DCT LONDA |
| Aircraft | B350/L-SBGRWY/C |
Departure
| Time | 2026-05-04 20:51 |
|---|---|
| Airport | Falcone–Borsellino Airport (LICJ) |
Arrival
| Time | 2026-05-04 21:28 |
|---|---|
| Airport | Reggio Calabria Airport (LICR) |
| Time | Latitude | Longitude | Altitude | Speed | Heading |
|---|---|---|---|---|---|
| 2026-05-04 20:40 | 38.18545 | 13.10874 | 63 ft | 0 kts | 247° |
| 2026-05-04 20:44 | 38.18540 | 13.10860 | 63 ft | 3 kts | 246° |
| 2026-05-04 20:44 | 38.18529 | 13.10832 | 63 ft | 3 kts | 242° |
| 2026-05-04 20:45 | 38.18505 | 13.10800 | 64 ft | 6 kts | 193° |
| 2026-05-04 20:45 | 38.18478 | 13.10842 | 67 ft | 7 kts | 110° |
| 2026-05-04 20:45 | 38.18462 | 13.10921 | 68 ft | 10 kts | 110° |
| 2026-05-04 20:45 | 38.18424 | 13.10972 | 71 ft | 7 kts | 114° |
| 2026-05-04 20:46 | 38.18441 | 13.11048 | 70 ft | 12 kts | 64° |
| 2026-05-04 20:46 | 38.18486 | 13.11161 | 69 ft | 12 kts | 64° |
| 2026-05-04 20:46 | 38.18518 | 13.11243 | 68 ft | 8 kts | 66° |
| 2026-05-04 20:46 | 38.18551 | 13.11342 | 66 ft | 14 kts | 68° |
| 2026-05-04 20:47 | 38.18594 | 13.11478 | 64 ft | 18 kts | 67° |
| 2026-05-04 20:47 | 38.18613 | 13.11628 | 61 ft | 0 kts | 96° |
| 2026-05-04 20:47 | 38.18611 | 13.11656 | 61 ft | 7 kts | 96° |
| 2026-05-04 20:47 | 38.18607 | 13.11707 | 61 ft | 0 kts | 95° |
| 2026-05-04 20:49 | 38.18605 | 13.11729 | 60 ft | 6 kts | 95° |
| 2026-05-04 20:49 | 38.18599 | 13.11828 | 58 ft | 15 kts | 94° |
| 2026-05-04 20:50 | 38.18561 | 13.11896 | 58 ft | 2 kts | 170° |
| 2026-05-04 20:50 | 38.18516 | 13.11873 | 61 ft | 8 kts | 239° |
| 2026-05-04 20:50 | 38.18465 | 13.11731 | 68 ft | 43 kts | 246° |
| 2026-05-04 20:50 | 38.18229 | 13.11037 | 170 ft | 111 kts | 243° |
| 2026-05-04 20:51 | 38.17896 | 13.10220 | 868 ft | 111 kts | 240° |
| 2026-05-04 20:51 | 38.17505 | 13.09344 | 1482 ft | 121 kts | 237° |
| 2026-05-04 20:51 | 38.17084 | 13.08343 | 2017 ft | 139 kts | 239° |
| 2026-05-04 20:51 | 38.16594 | 13.07314 | 2744 ft | 138 kts | 236° |
| 2026-05-04 20:52 | 38.16072 | 13.06245 | 3343 ft | 149 kts | 238° |
| 2026-05-04 20:52 | 38.15656 | 13.05011 | 3985 ft | 155 kts | 258° |
| 2026-05-04 20:52 | 38.15639 | 13.03715 | 4714 ft | 152 kts | 281° |
| 2026-05-04 20:52 | 38.16064 | 13.02485 | 5303 ft | 159 kts | 305° |
| 2026-05-04 20:53 | 38.16862 | 13.01515 | 5977 ft | 159 kts | 329° |
| 2026-05-04 20:53 | 38.17896 | 13.01187 | 6652 ft | 159 kts | 353° |
| 2026-05-04 20:53 | 38.19014 | 13.01275 | 7349 ft | 164 kts | 10° |
| 2026-05-04 20:53 | 38.20071 | 13.01795 | 8016 ft | 168 kts | 25° |
| 2026-05-04 20:54 | 38.20944 | 13.02764 | 8679 ft | 174 kts | 55° |
| 2026-05-04 20:54 | 38.21264 | 13.04221 | 9301 ft | 180 kts | 80° |
| 2026-05-04 20:54 | 38.21419 | 13.05799 | 9948 ft | 179 kts | 83° |
| 2026-05-04 20:54 | 38.21535 | 13.07367 | 10560 ft | 180 kts | 82° |
| 2026-05-04 20:55 | 38.21670 | 13.08944 | 11121 ft | 183 kts | 81° |
| 2026-05-04 20:55 | 38.21816 | 13.10555 | 11671 ft | 186 kts | 81° |
| 2026-05-04 20:55 | 38.21965 | 13.12190 | 12214 ft | 188 kts | 81° |
| 2026-05-04 20:55 | 38.22116 | 13.13837 | 12770 ft | 194 kts | 81° |
| 2026-05-04 20:56 | 38.22273 | 13.15541 | 13402 ft | 195 kts | 81° |
| 2026-05-04 20:56 | 38.22430 | 13.17252 | 14032 ft | 196 kts | 81° |
| 2026-05-04 20:56 | 38.22586 | 13.18962 | 14625 ft | 198 kts | 81° |
| 2026-05-04 20:56 | 38.22745 | 13.20695 | 15156 ft | 201 kts | 80° |
| 2026-05-04 20:57 | 38.22907 | 13.22469 | 15684 ft | 205 kts | 80° |
| 2026-05-04 20:57 | 38.23072 | 13.24271 | 16185 ft | 208 kts | 80° |
| 2026-05-04 20:57 | 38.23238 | 13.26103 | 16689 ft | 212 kts | 80° |
| 2026-05-04 20:57 | 38.23408 | 13.27971 | 17188 ft | 215 kts | 80° |
| 2026-05-04 20:58 | 38.23578 | 13.29847 | 17677 ft | 217 kts | 80° |
| 2026-05-04 20:58 | 38.23751 | 13.31748 | 18144 ft | 219 kts | 80° |
| 2026-05-04 20:58 | 38.23925 | 13.33680 | 18625 ft | 220 kts | 80° |
| 2026-05-04 20:58 | 38.24099 | 13.35602 | 19084 ft | 221 kts | 80° |
| 2026-05-04 20:59 | 38.24273 | 13.37543 | 19531 ft | 223 kts | 79° |
| 2026-05-04 20:59 | 38.24448 | 13.39490 | 19964 ft | 224 kts | 79° |
| 2026-05-04 20:59 | 38.24631 | 13.41509 | 20149 ft | 239 kts | 79° |
| 2026-05-04 20:59 | 38.24828 | 13.43706 | 20169 ft | 258 kts | 80° |
| 2026-05-04 21:00 | 38.25036 | 13.46043 | 20177 ft | 273 kts | 80° |
| 2026-05-04 21:00 | 38.25254 | 13.48498 | 20168 ft | 286 kts | 80° |
| 2026-05-04 21:00 | 38.25480 | 13.51035 | 20164 ft | 297 kts | 80° |
| 2026-05-04 21:00 | 38.25713 | 13.53671 | 20167 ft | 306 kts | 80° |
| 2026-05-04 21:01 | 38.25954 | 13.56393 | 20159 ft | 313 kts | 80° |
| 2026-05-04 21:01 | 38.26197 | 13.59157 | 20164 ft | 316 kts | 80° |
| 2026-05-04 21:01 | 38.26442 | 13.61937 | 20163 ft | 319 kts | 80° |
| 2026-05-04 21:01 | 38.26689 | 13.64752 | 20161 ft | 321 kts | 80° |
| 2026-05-04 21:02 | 38.26936 | 13.67573 | 20147 ft | 323 kts | 81° |
| 2026-05-04 21:02 | 38.27183 | 13.70402 | 20147 ft | 324 kts | 81° |
| 2026-05-04 21:02 | 38.27432 | 13.73252 | 20150 ft | 325 kts | 81° |
| 2026-05-04 21:02 | 38.27681 | 13.76114 | 20155 ft | 326 kts | 81° |
| 2026-05-04 21:03 | 38.27929 | 13.78985 | 20154 ft | 327 kts | 81° |
| 2026-05-04 21:03 | 38.28177 | 13.81855 | 20157 ft | 328 kts | 81° |
| 2026-05-04 21:03 | 38.28424 | 13.84731 | 20162 ft | 328 kts | 81° |
| 2026-05-04 21:03 | 38.28671 | 13.87607 | 20167 ft | 329 kts | 81° |
| 2026-05-04 21:04 | 38.28920 | 13.90522 | 20163 ft | 329 kts | 81° |
| 2026-05-04 21:04 | 38.29167 | 13.93409 | 20169 ft | 329 kts | 81° |
| 2026-05-04 21:04 | 38.29410 | 13.96270 | 20163 ft | 330 kts | 81° |
| 2026-05-04 21:04 | 38.29657 | 13.99180 | 20164 ft | 330 kts | 81° |
| 2026-05-04 21:05 | 38.29902 | 14.02087 | 20166 ft | 330 kts | 81° |
| 2026-05-04 21:05 | 38.30146 | 14.04985 | 20167 ft | 330 kts | 81° |
| 2026-05-04 21:05 | 38.30390 | 14.07877 | 20167 ft | 330 kts | 81° |
| 2026-05-04 21:05 | 38.30633 | 14.10779 | 20169 ft | 330 kts | 81° |
| 2026-05-04 21:06 | 38.30875 | 14.13684 | 20164 ft | 330 kts | 81° |
| 2026-05-04 21:06 | 38.31117 | 14.16587 | 20165 ft | 330 kts | 81° |
| 2026-05-04 21:06 | 38.31358 | 14.19488 | 20168 ft | 330 kts | 81° |
| 2026-05-04 21:06 | 38.31598 | 14.22391 | 20168 ft | 330 kts | 81° |
| 2026-05-04 21:07 | 38.31835 | 14.25263 | 20161 ft | 331 kts | 81° |
| 2026-05-04 21:07 | 38.32075 | 14.28186 | 20158 ft | 331 kts | 81° |
| 2026-05-04 21:07 | 38.32314 | 14.31094 | 20157 ft | 330 kts | 81° |
| 2026-05-04 21:07 | 38.32552 | 14.34003 | 20155 ft | 331 kts | 81° |
| 2026-05-04 21:08 | 38.32787 | 14.36890 | 20149 ft | 330 kts | 81° |
| 2026-05-04 21:08 | 38.33021 | 14.39772 | 20151 ft | 330 kts | 81° |
| 2026-05-04 21:08 | 38.33258 | 14.42691 | 20153 ft | 330 kts | 81° |
| 2026-05-04 21:08 | 38.33139 | 14.45603 | 20135 ft | 335 kts | 102° |
| 2026-05-04 21:09 | 38.32239 | 14.48308 | 20168 ft | 335 kts | 117° |
| 2026-05-04 21:09 | 38.31139 | 14.50945 | 20152 ft | 336 kts | 117° |
| 2026-05-04 21:09 | 38.30049 | 14.53544 | 20151 ft | 336 kts | 117° |
| 2026-05-04 21:09 | 38.28943 | 14.56181 | 20153 ft | 336 kts | 117° |
| 2026-05-04 21:10 | 38.27839 | 14.58806 | 20150 ft | 336 kts | 117° |
| 2026-05-04 21:10 | 38.26742 | 14.61413 | 20151 ft | 336 kts | 117° |
| 2026-05-04 21:10 | 38.25639 | 14.64034 | 20154 ft | 335 kts | 117° |
| 2026-05-04 21:10 | 38.24546 | 14.66628 | 20146 ft | 335 kts | 118° |
| 2026-05-04 21:11 | 38.23440 | 14.69249 | 20144 ft | 335 kts | 118° |
| 2026-05-04 21:11 | 38.22351 | 14.71828 | 20137 ft | 335 kts | 117° |
| 2026-05-04 21:11 | 38.21247 | 14.74441 | 19785 ft | 335 kts | 117° |
| 2026-05-04 21:11 | 38.20153 | 14.77027 | 19380 ft | 331 kts | 118° |
| 2026-05-04 21:12 | 38.19076 | 14.79570 | 18922 ft | 325 kts | 118° |
| 2026-05-04 21:12 | 38.18022 | 14.82060 | 18436 ft | 321 kts | 117° |
| 2026-05-04 21:12 | 38.16963 | 14.84558 | 17921 ft | 319 kts | 117° |
| 2026-05-04 21:12 | 38.15918 | 14.87021 | 17411 ft | 316 kts | 117° |
| 2026-05-04 21:13 | 38.14889 | 14.89446 | 16909 ft | 314 kts | 117° |
| 2026-05-04 21:13 | 38.13863 | 14.91860 | 16415 ft | 311 kts | 117° |
| 2026-05-04 21:13 | 38.12833 | 14.94284 | 15907 ft | 309 kts | 117° |
| 2026-05-04 21:13 | 38.11815 | 14.96677 | 15397 ft | 308 kts | 117° |
| 2026-05-04 21:14 | 38.10815 | 14.99024 | 14891 ft | 306 kts | 117° |
| 2026-05-04 21:14 | 38.09804 | 15.01398 | 14376 ft | 304 kts | 117° |
| 2026-05-04 21:14 | 38.08807 | 15.03738 | 13872 ft | 302 kts | 117° |
| 2026-05-04 21:14 | 38.07811 | 15.06073 | 13350 ft | 300 kts | 117° |
| 2026-05-04 21:15 | 38.06827 | 15.08380 | 12839 ft | 297 kts | 117° |
| 2026-05-04 21:15 | 38.05860 | 15.10643 | 12336 ft | 294 kts | 117° |
| 2026-05-04 21:15 | 38.04881 | 15.12933 | 11820 ft | 292 kts | 117° |
| 2026-05-04 21:15 | 38.03920 | 15.15178 | 11312 ft | 290 kts | 117° |
| 2026-05-04 21:16 | 38.02964 | 15.17411 | 10804 ft | 288 kts | 117° |
| 2026-05-04 21:16 | 38.02025 | 15.19602 | 10300 ft | 284 kts | 117° |
| 2026-05-04 21:16 | 38.01081 | 15.21803 | 9784 ft | 280 kts | 117° |
| 2026-05-04 21:16 | 38.00166 | 15.23936 | 9288 ft | 277 kts | 117° |
| 2026-05-04 21:17 | 37.99254 | 15.26058 | 8844 ft | 271 kts | 117° |
| 2026-05-04 21:17 | 37.98363 | 15.28132 | 8399 ft | 268 kts | 117° |
| 2026-05-04 21:17 | 37.97487 | 15.30170 | 7952 ft | 264 kts | 117° |
| 2026-05-04 21:17 | 37.96608 | 15.32213 | 7505 ft | 261 kts | 117° |
| 2026-05-04 21:18 | 37.95753 | 15.34197 | 7053 ft | 254 kts | 117° |
| 2026-05-04 21:18 | 37.94926 | 15.36117 | 6669 ft | 245 kts | 117° |
| 2026-05-04 21:18 | 37.94119 | 15.37989 | 6313 ft | 237 kts | 117° |
| 2026-05-04 21:18 | 37.93350 | 15.39772 | 6010 ft | 228 kts | 117° |
| 2026-05-04 21:19 | 37.92605 | 15.41498 | 5707 ft | 222 kts | 117° |
| 2026-05-04 21:19 | 37.91873 | 15.43194 | 5405 ft | 216 kts | 117° |
| 2026-05-04 21:19 | 37.91166 | 15.44831 | 5105 ft | 211 kts | 117° |
| 2026-05-04 21:19 | 37.90460 | 15.46463 | 4805 ft | 209 kts | 117° |
| 2026-05-04 21:20 | 37.89772 | 15.48056 | 4511 ft | 206 kts | 117° |
| 2026-05-04 21:20 | 37.89088 | 15.49636 | 4215 ft | 205 kts | 117° |
| 2026-05-04 21:20 | 37.88407 | 15.51208 | 3921 ft | 203 kts | 117° |
| 2026-05-04 21:20 | 37.87730 | 15.52773 | 3624 ft | 202 kts | 117° |
| 2026-05-04 21:21 | 37.87060 | 15.54319 | 3332 ft | 201 kts | 117° |
| 2026-05-04 21:21 | 37.86425 | 15.55879 | 3033 ft | 199 kts | 107° |
| 2026-05-04 21:21 | 37.86441 | 15.57587 | 2749 ft | 194 kts | 68° |
| 2026-05-04 21:21 | 37.87258 | 15.58803 | 2691 ft | 179 kts | 30° |
| 2026-05-04 21:22 | 37.88355 | 15.59500 | 2687 ft | 174 kts | 24° |
| 2026-05-04 21:22 | 37.89459 | 15.60107 | 2683 ft | 170 kts | 22° |
| 2026-05-04 21:22 | 37.90555 | 15.60650 | 2671 ft | 167 kts | 19° |
| 2026-05-04 21:22 | 37.91647 | 15.61119 | 2650 ft | 165 kts | 19° |
| 2026-05-04 21:23 | 37.92733 | 15.61582 | 2613 ft | 159 kts | 19° |
| 2026-05-04 21:23 | 37.93742 | 15.62011 | 2469 ft | 148 kts | 19° |
| 2026-05-04 21:23 | 37.94671 | 15.62406 | 2273 ft | 126 kts | 19° |
| 2026-05-04 21:23 | 37.95489 | 15.62748 | 2065 ft | 123 kts | 18° |
| 2026-05-04 21:24 | 37.96295 | 15.63079 | 1846 ft | 123 kts | 18° |
| 2026-05-04 21:24 | 37.97111 | 15.63412 | 1612 ft | 121 kts | 17° |
| 2026-05-04 21:24 | 37.97907 | 15.63755 | 1283 ft | 120 kts | 20° |
| 2026-05-04 21:24 | 37.98663 | 15.64159 | 992 ft | 117 kts | 20° |
| 2026-05-04 21:25 | 37.99416 | 15.64540 | 807 ft | 114 kts | 19° |
| 2026-05-04 21:25 | 38.00136 | 15.64813 | 758 ft | 102 kts | 13° |
| 2026-05-04 21:25 | 38.00824 | 15.65031 | 695 ft | 102 kts | 14° |
| 2026-05-04 21:25 | 38.01503 | 15.65274 | 693 ft | 99 kts | 16° |
| 2026-05-04 21:26 | 38.02173 | 15.65530 | 672 ft | 101 kts | 15° |
| 2026-05-04 21:26 | 38.02875 | 15.65772 | 599 ft | 107 kts | 17° |
| 2026-05-04 21:26 | 38.03583 | 15.65998 | 559 ft | 101 kts | 12° |
| 2026-05-04 21:26 | 38.04293 | 15.66147 | 518 ft | 106 kts | 7° |
| 2026-05-04 21:27 | 38.05018 | 15.66182 | 389 ft | 102 kts | 356° |
| 2026-05-04 21:27 | 38.05701 | 15.66021 | 272 ft | 97 kts | 344° |
| 2026-05-04 21:27 | 38.06327 | 15.65677 | 152 ft | 101 kts | 331° |
| 2026-05-04 21:27 | 38.06942 | 15.65263 | 45 ft | 92 kts | 334° |
| 2026-05-04 21:28 | 38.07278 | 15.65059 | 56 ft | 14 kts | 26° |
| 2026-05-04 21:28 | 38.07314 | 15.65168 | 60 ft | 5 kts | 63° |
| 2026-05-04 21:28 | 38.07315 | 15.65172 | 60 ft | 0 kts | 63° |
| 2026-05-04 21:28 | 38.07316 | 15.65174 | 60 ft | 1 kts | 63° |
| 2026-05-04 21:29 | 38.07330 | 15.65207 | 62 ft | 7 kts | 62° |
| 2026-05-04 21:29 | 38.07365 | 15.65287 | 65 ft | 11 kts | 63° |
| 2026-05-04 21:29 | 38.07361 | 15.65303 | 65 ft | 0 kts | 153° |